EIKY/KIR METAR and TAF weather

Enter ICAO airport designator
Station Type Date Time Source
EIKY METAR 2020/09/21 09:30 UTC NOAA

EIKY 210930Z VRB02KT 9999 BKN015 13/13 Q1019


Station Type Date Time Source
EIKY Decoded METAR 2020/09/21 09:30 UTC NOAA

Station name not available
Sep 21, 2020 - 05:30 AM EDT / 2020.09.21 0930 UTC
Wind: Variable at 2 MPH (2 KT):0
Visibility: greater than 7 mile(s):0
Sky conditions: mostly cloudy
Temperature: 55 F (13 C)
Dew Point: 55 F (13 C)
Relative Humidity: 100%
Pressure (altimeter): 30.09 in. Hg (1019 hPa)
ob: EIKY 210930Z VRB02KT 9999 BKN015 13/13 Q1019
cycle: 9

Station Type Date Time Source
EIKY TAF UTC NOAA

Error!

Example: see airport list